createdAt,value
2019-01-23T00:00:41.061Z,965.50
2019-01-23T00:01:41.020Z,965.51
2019-01-23T00:02:40.971Z,965.49
2019-01-23T00:03:40.930Z,965.47
2019-01-23T00:04:40.882Z,965.49
2019-01-23T00:05:40.833Z,965.43
2019-01-23T00:06:40.787Z,965.44
2019-01-23T00:07:40.751Z,965.42
2019-01-23T00:08:40.701Z,965.36
2019-01-23T00:09:40.651Z,965.35
2019-01-23T00:10:40.606Z,965.32
2019-01-23T00:11:40.560Z,965.30
2019-01-23T00:12:40.521Z,965.26
2019-01-23T00:13:40.473Z,965.29
2019-01-23T00:14:40.433Z,965.24
2019-01-23T00:15:40.384Z,965.31
2019-01-23T00:16:40.340Z,965.26
2019-01-23T00:17:40.292Z,965.24
2019-01-23T00:18:40.246Z,965.23
2019-01-23T00:19:40.200Z,965.25
2019-01-23T00:20:40.157Z,965.28
2019-01-23T00:21:40.116Z,965.25
2019-01-23T00:22:40.071Z,965.26
2019-01-23T00:23:40.021Z,965.22
2019-01-23T00:24:39.975Z,965.23
2019-01-23T00:25:39.933Z,965.21
2019-01-23T00:26:39.891Z,965.19
2019-01-23T00:27:39.848Z,965.21
2019-01-23T00:28:42.461Z,965.16
2019-01-23T00:29:39.751Z,965.17
2019-01-23T00:30:39.700Z,965.17
2019-01-23T00:31:39.660Z,965.16
2019-01-23T00:32:39.614Z,965.19
2019-01-23T00:33:39.571Z,965.11
2019-01-23T00:34:39.530Z,965.15
2019-01-23T00:35:39.484Z,965.10
2019-01-23T00:36:39.437Z,965.07
2019-01-23T00:37:39.390Z,965.03
2019-01-23T00:38:39.349Z,965.05
2019-01-23T00:39:39.305Z,965.03
2019-01-23T00:40:39.256Z,965.02
2019-01-23T00:41:39.209Z,965.01
2019-01-23T00:42:39.166Z,964.99
2019-01-23T00:43:39.118Z,964.97
2019-01-23T00:44:39.080Z,965.01
2019-01-23T00:45:39.032Z,964.97
2019-01-23T00:46:38.984Z,964.91
2019-01-23T00:47:38.942Z,964.93
2019-01-23T00:48:38.893Z,964.95
2019-01-23T00:49:38.851Z,964.89
2019-01-23T00:50:38.799Z,964.90
2019-01-23T00:51:38.756Z,964.82
2019-01-23T00:52:38.711Z,964.80
2019-01-23T00:53:38.666Z,964.81
2019-01-23T00:54:38.624Z,964.79
2019-01-23T00:55:38.571Z,964.80
2019-01-23T00:56:38.532Z,964.78
2019-01-23T00:57:38.489Z,964.75
2019-01-23T00:58:38.448Z,964.71
2019-01-23T00:59:38.402Z,964.66
2019-01-23T01:00:38.351Z,964.70
2019-01-23T01:01:38.303Z,964.69
2019-01-23T01:02:38.257Z,964.69
2019-01-23T01:03:38.213Z,964.70
2019-01-23T01:04:38.171Z,964.66
2019-01-23T01:05:38.131Z,964.67
2019-01-23T01:06:38.085Z,964.69
2019-01-23T01:07:38.039Z,964.62
2019-01-23T01:08:37.999Z,964.63
2019-01-23T01:09:37.946Z,964.63
2019-01-23T01:10:37.896Z,964.61
2019-01-23T01:11:37.862Z,964.64
2019-01-23T01:12:37.809Z,964.60
2019-01-23T01:13:37.764Z,964.62
2019-01-23T01:14:37.716Z,964.68
2019-01-23T01:15:37.684Z,964.65
2019-01-23T01:16:37.626Z,964.65
2019-01-23T01:17:37.591Z,964.65
2019-01-23T01:18:37.541Z,964.66
2019-01-23T01:19:37.496Z,964.64
2019-01-23T01:20:37.447Z,964.67
2019-01-23T01:21:37.404Z,964.68
2019-01-23T01:22:37.352Z,964.68
2019-01-23T01:23:37.308Z,964.65
2019-01-23T01:24:37.266Z,964.65
2019-01-23T01:25:37.223Z,964.64
2019-01-23T01:26:37.182Z,964.61
2019-01-23T01:27:37.131Z,964.60
2019-01-23T01:28:37.081Z,964.58
2019-01-23T01:29:37.046Z,964.57
2019-01-23T01:30:36.999Z,964.53
2019-01-23T01:31:36.952Z,964.57
2019-01-23T01:32:36.906Z,964.57
2019-01-23T01:33:36.861Z,964.55
2019-01-23T01:34:36.813Z,964.52
2019-01-23T01:35:36.770Z,964.57
2019-01-23T01:36:36.725Z,964.56
2019-01-23T01:37:36.688Z,964.55
2019-01-23T01:38:36.638Z,964.59
2019-01-23T01:39:36.592Z,964.55
2019-01-23T01:40:36.543Z,964.57
2019-01-23T01:41:36.499Z,964.57
2019-01-23T01:42:36.449Z,964.58
2019-01-23T01:43:36.409Z,964.59
2019-01-23T01:44:36.363Z,964.58
2019-01-23T01:45:36.316Z,964.59
2019-01-23T01:46:36.267Z,964.55
2019-01-23T01:47:36.223Z,964.58
2019-01-23T01:48:36.180Z,964.54
2019-01-23T01:49:36.136Z,964.54
2019-01-23T01:50:36.095Z,964.52
2019-01-23T01:51:36.052Z,964.56
2019-01-23T01:52:36.000Z,964.50
2019-01-23T01:53:35.955Z,964.53
2019-01-23T01:54:35.907Z,964.53
2019-01-23T01:55:35.861Z,964.50
2019-01-23T01:56:35.815Z,964.49
2019-01-23T01:57:35.775Z,964.47
2019-01-23T01:58:35.733Z,964.44
2019-01-23T01:59:35.708Z,964.47
2019-01-23T02:00:35.638Z,964.48
2019-01-23T02:01:35.596Z,964.48
2019-01-23T02:02:35.552Z,964.43
2019-01-23T02:03:35.508Z,964.43
2019-01-23T02:04:35.462Z,964.46
2019-01-23T02:05:35.408Z,964.48
2019-01-23T02:06:35.375Z,964.45
2019-01-23T02:07:35.321Z,964.44
2019-01-23T02:08:35.279Z,964.41
2019-01-23T02:09:35.540Z,964.44
2019-01-23T02:10:35.194Z,964.46
2019-01-23T02:11:35.150Z,964.43
2019-01-23T02:12:35.098Z,964.39
2019-01-23T02:13:35.050Z,964.39
2019-01-23T02:14:35.006Z,964.41
2019-01-23T02:15:34.968Z,964.39
2019-01-23T02:16:34.918Z,964.37
2019-01-23T02:17:34.872Z,964.38
2019-01-23T02:18:34.823Z,964.32
2019-01-23T02:19:34.778Z,964.31
2019-01-23T02:20:34.733Z,964.31
2019-01-23T02:21:34.692Z,964.27
2019-01-23T02:22:34.649Z,964.27
2019-01-23T02:23:34.627Z,964.20
2019-01-23T02:24:34.557Z,964.24
2019-01-23T02:25:34.511Z,964.21
2019-01-23T02:26:34.468Z,964.18
2019-01-23T02:27:34.416Z,964.21
2019-01-23T02:28:34.374Z,964.20
2019-01-23T02:29:34.330Z,964.20
2019-01-23T02:30:34.289Z,964.18
2019-01-23T02:31:34.238Z,964.17
2019-01-23T02:32:34.195Z,964.13
2019-01-23T02:33:34.152Z,964.14
2019-01-23T02:34:34.111Z,964.12
2019-01-23T02:35:34.070Z,964.11
2019-01-23T02:36:34.015Z,964.06
2019-01-23T02:37:33.972Z,964.06
2019-01-23T02:38:33.921Z,964.03
2019-01-23T02:39:33.874Z,964.03
2019-01-23T02:40:33.834Z,964.06
2019-01-23T02:41:33.792Z,964.03
2019-01-23T02:42:33.745Z,964.00
2019-01-23T02:43:33.703Z,964.01
2019-01-23T02:44:33.658Z,963.97
2019-01-23T02:45:33.609Z,964.00
2019-01-23T02:46:33.559Z,963.98
2019-01-23T02:47:33.528Z,963.97
2019-01-23T02:48:33.472Z,963.93
2019-01-23T02:49:33.428Z,963.93
2019-01-23T02:50:33.382Z,963.90
2019-01-23T02:51:33.338Z,963.92
2019-01-23T02:52:33.293Z,963.86
2019-01-23T02:53:33.250Z,963.90
2019-01-23T02:54:33.207Z,963.89
2019-01-23T02:55:33.162Z,963.88
2019-01-23T02:56:33.128Z,963.88
2019-01-23T02:57:33.075Z,963.85
2019-01-23T02:58:33.019Z,963.85
2019-01-23T02:59:32.973Z,963.80
2019-01-23T03:00:32.929Z,963.81
2019-01-23T03:01:32.888Z,963.80
2019-01-23T03:02:32.844Z,963.77
2019-01-23T03:03:32.792Z,963.76
2019-01-23T03:04:32.755Z,963.72
2019-01-23T03:05:32.728Z,963.76
2019-01-23T03:06:32.665Z,963.73
2019-01-23T03:07:32.618Z,963.65
2019-01-23T03:08:32.572Z,963.68
2019-01-23T03:09:32.526Z,963.66
2019-01-23T03:10:32.479Z,963.63
2019-01-23T03:11:32.441Z,963.60
2019-01-23T03:12:32.385Z,963.61
2019-01-23T03:13:32.342Z,963.58
2019-01-23T03:14:32.295Z,963.61
2019-01-23T03:15:32.265Z,963.57
2019-01-23T03:16:32.208Z,963.58
2019-01-23T03:17:32.167Z,963.51
2019-01-23T03:18:32.125Z,963.51
2019-01-23T03:19:32.080Z,963.54
2019-01-23T03:20:32.028Z,963.51
2019-01-23T03:21:31.981Z,963.47
2019-01-23T03:22:31.941Z,963.47
2019-01-23T03:23:31.895Z,963.46
2019-01-23T03:24:31.844Z,963.43
2019-01-23T03:25:31.799Z,963.42
2019-01-23T03:26:31.754Z,963.37
2019-01-23T03:27:31.707Z,963.40
2019-01-23T03:28:31.669Z,963.33
2019-01-23T03:29:31.630Z,963.39
2019-01-23T03:30:31.580Z,963.35
2019-01-23T03:31:31.534Z,963.32
2019-01-23T03:32:31.486Z,963.33
2019-01-23T03:33:31.439Z,963.26
2019-01-23T03:34:31.390Z,963.24
2019-01-23T03:35:31.353Z,963.23
2019-01-23T03:36:31.304Z,963.25
2019-01-23T03:37:31.263Z,963.23
2019-01-23T03:38:31.208Z,963.24
2019-01-23T03:39:31.172Z,963.24
2019-01-23T03:40:31.123Z,963.22
2019-01-23T03:41:31.079Z,963.22
2019-01-23T03:42:31.034Z,963.16
2019-01-23T03:43:30.991Z,963.20
2019-01-23T03:44:30.970Z,963.19
2019-01-23T03:45:30.895Z,963.23
2019-01-23T03:46:30.847Z,963.22
2019-01-23T03:47:30.801Z,963.18
2019-01-23T03:48:30.761Z,963.22
2019-01-23T03:49:30.716Z,963.16
2019-01-23T03:50:30.674Z,963.24
2019-01-23T03:51:30.620Z,963.19
2019-01-23T04:06:41.793Z,963.07
2019-01-23T04:07:41.723Z,963.09
2019-01-23T04:08:41.677Z,963.05
2019-01-23T04:09:41.649Z,963.09
2019-01-23T04:10:41.571Z,963.14
2019-01-23T04:11:41.519Z,963.09
2019-01-23T04:12:41.483Z,963.13
2019-01-23T04:13:41.420Z,963.12
2019-01-23T04:14:41.375Z,963.08
2019-01-23T04:15:41.324Z,963.06
2019-01-23T04:16:41.279Z,963.05
2019-01-23T04:17:41.242Z,963.05
2019-01-23T04:18:41.184Z,963.07
2019-01-23T04:19:41.142Z,963.03
2019-01-23T04:20:41.101Z,963.05
2019-01-23T04:21:41.051Z,963.07
2019-01-23T04:22:41.008Z,963.05
2019-01-23T04:23:40.955Z,963.04
2019-01-23T04:24:40.906Z,963.05
2019-01-23T04:25:40.860Z,963.04
2019-01-23T04:26:40.814Z,963.06
2019-01-23T04:27:40.775Z,963.03
2019-01-23T04:28:40.725Z,963.07
2019-01-23T04:29:40.682Z,963.01
2019-01-23T04:30:40.638Z,962.97
2019-01-23T04:31:40.588Z,963.00
2019-01-23T04:32:40.543Z,962.95
2019-01-23T04:33:40.495Z,963.00
2019-01-23T04:34:40.454Z,962.93
2019-01-23T04:35:40.407Z,962.94
2019-01-23T04:36:40.360Z,962.94
2019-01-23T04:37:40.311Z,962.97
2019-01-23T04:38:40.267Z,962.97
2019-01-23T04:39:40.223Z,962.99
2019-01-23T04:40:40.181Z,963.01
2019-01-23T04:41:40.133Z,963.00
2019-01-23T04:42:40.089Z,962.99
2019-01-23T04:43:40.045Z,962.96
2019-01-23T04:44:39.994Z,963.01
2019-01-23T04:45:39.945Z,963.01
2019-01-23T04:46:39.900Z,963.00
2019-01-23T04:47:39.857Z,963.02
2019-01-23T04:48:39.816Z,962.98
2019-01-23T04:49:39.778Z,962.99
2019-01-23T04:50:39.718Z,962.98
2019-01-23T04:51:39.676Z,963.00
2019-01-23T04:52:39.632Z,962.98
2019-01-23T04:53:39.589Z,962.98
2019-01-23T04:54:39.542Z,962.96
2019-01-23T04:55:39.495Z,962.93
2019-01-23T04:56:39.447Z,963.02
2019-01-23T04:57:39.419Z,962.95
2019-01-23T04:58:39.354Z,962.96
2019-01-23T04:59:39.311Z,962.97
2019-01-23T05:00:39.271Z,962.88
2019-01-23T05:01:39.224Z,962.91
2019-01-23T05:02:39.178Z,962.88
2019-01-23T05:03:39.138Z,962.84
2019-01-23T05:04:39.086Z,962.88
2019-01-23T05:05:39.037Z,962.88
2019-01-23T05:06:38.996Z,962.85
2019-01-23T05:07:38.948Z,962.89
2019-01-23T05:08:38.904Z,962.86
2019-01-23T05:09:38.853Z,962.88
2019-01-23T05:10:38.814Z,962.85
2019-01-23T05:11:38.765Z,962.87
2019-01-23T05:12:38.729Z,962.82
2019-01-23T05:13:38.680Z,962.84
2019-01-23T05:14:38.626Z,962.84
2019-01-23T05:15:38.585Z,962.86
2019-01-23T05:16:38.541Z,962.81
2019-01-23T05:17:38.495Z,962.83
2019-01-23T05:18:38.452Z,962.82
2019-01-23T05:19:38.407Z,962.84
2019-01-23T05:20:38.356Z,962.83
2019-01-23T05:21:38.308Z,962.80
2019-01-23T05:22:38.269Z,962.76
2019-01-23T05:23:38.224Z,962.79
2019-01-23T05:24:38.179Z,962.81
2019-01-23T05:25:38.128Z,962.81
2019-01-23T05:26:38.081Z,962.79
2019-01-23T05:27:38.039Z,962.82
2019-01-23T05:28:37.994Z,962.80
2019-01-23T05:29:37.958Z,962.80
2019-01-23T05:30:37.905Z,962.82
2019-01-23T05:31:37.861Z,962.80
2019-01-23T05:32:37.810Z,962.74
2019-01-23T05:33:37.770Z,962.73
2019-01-23T05:34:37.719Z,962.74
2019-01-23T05:35:37.683Z,962.65
2019-01-23T05:36:37.651Z,962.72
2019-01-23T05:37:37.587Z,962.75
2019-01-23T05:38:37.538Z,962.74
2019-01-23T05:39:37.493Z,962.74
2019-01-23T05:40:37.450Z,962.74
2019-01-23T05:41:37.407Z,962.76
2019-01-23T05:42:37.362Z,962.71
2019-01-23T05:43:37.316Z,962.73
2019-01-23T05:44:37.267Z,962.69
2019-01-23T05:45:37.219Z,962.74
2019-01-23T05:46:37.173Z,962.75
2019-01-23T05:47:37.130Z,962.70
2019-01-23T05:48:37.088Z,962.71
2019-01-23T05:49:37.045Z,962.72
2019-01-23T05:50:36.999Z,962.68
2019-01-23T05:51:36.954Z,962.67
2019-01-23T05:52:36.903Z,962.73
2019-01-23T05:53:36.863Z,962.70
2019-01-23T05:54:36.817Z,962.66
2019-01-23T05:55:36.772Z,962.67
2019-01-23T05:56:36.723Z,962.67
2019-01-23T05:57:36.674Z,962.72
2019-01-23T05:58:36.629Z,962.65
2019-01-23T05:59:36.586Z,962.68
2019-01-23T06:00:36.544Z,962.68
2019-01-23T06:01:36.498Z,962.68
2019-01-23T06:02:36.454Z,962.67
2019-01-23T06:03:36.409Z,962.69
2019-01-23T06:04:36.360Z,962.64
2019-01-23T06:05:36.312Z,962.68
2019-01-23T06:06:36.267Z,962.69
2019-01-23T06:07:36.223Z,962.67
2019-01-23T06:08:36.179Z,962.65
2019-01-23T06:09:36.135Z,962.64
2019-01-23T06:10:36.086Z,962.70
2019-01-23T06:11:36.042Z,962.66
2019-01-23T06:12:35.999Z,962.69
2019-01-23T06:13:35.958Z,962.69
2019-01-23T06:14:35.913Z,962.70
2019-01-23T06:15:35.862Z,962.69
2019-01-23T06:16:35.819Z,962.71
2019-01-23T06:17:35.768Z,962.68
2019-01-23T06:18:35.725Z,962.68
2019-01-23T06:19:35.679Z,962.73
2019-01-23T06:20:35.659Z,962.72
2019-01-23T06:21:35.593Z,962.71
2019-01-23T06:22:35.549Z,962.71
2019-01-23T06:23:35.499Z,962.71
2019-01-23T06:24:35.463Z,962.72
2019-01-23T06:25:35.407Z,962.69
2019-01-23T06:26:35.365Z,962.74
2019-01-23T06:27:35.354Z,962.70
2019-01-23T06:28:35.271Z,962.72
2019-01-23T06:29:35.224Z,962.71
2019-01-23T06:30:35.179Z,962.75
2019-01-23T06:31:35.136Z,962.75
2019-01-23T06:32:35.092Z,962.73
2019-01-23T06:33:35.061Z,962.76
2019-01-23T06:34:35.003Z,962.76
2019-01-23T06:35:34.956Z,962.79
2019-01-23T06:36:34.910Z,962.78
2019-01-23T06:37:34.869Z,962.79
2019-01-23T06:38:34.816Z,962.77
2019-01-23T06:39:34.773Z,962.79
2019-01-23T06:40:34.760Z,962.79
2019-01-23T06:41:34.688Z,962.81
2019-01-23T06:42:34.635Z,962.77
2019-01-23T06:43:34.617Z,962.76
2019-01-23T06:44:34.551Z,962.79
2019-01-23T06:45:34.509Z,962.77
2019-01-23T06:46:34.463Z,962.77
2019-01-23T06:47:34.417Z,962.77
2019-01-23T06:48:34.367Z,962.81
2019-01-23T06:49:34.317Z,962.81
2019-01-23T06:50:34.283Z,962.79
2019-01-23T06:51:34.230Z,962.79
2019-01-23T06:52:34.194Z,962.81
2019-01-23T06:53:34.144Z,962.78
2019-01-23T06:54:34.099Z,962.78
2019-01-23T06:55:34.054Z,962.81
2019-01-23T06:56:34.001Z,962.81
2019-01-23T06:57:33.956Z,962.81
2019-01-23T06:58:33.916Z,962.79
2019-01-23T06:59:33.869Z,962.78
2019-01-23T07:00:33.824Z,962.78
2019-01-23T07:01:33.775Z,962.78
2019-01-23T07:02:33.730Z,962.80
2019-01-23T07:03:33.687Z,962.78
2019-01-23T07:04:33.642Z,962.76
2019-01-23T07:05:33.599Z,962.76
2019-01-23T07:06:33.555Z,962.78
2019-01-23T07:07:33.591Z,962.79
2019-01-23T07:08:33.462Z,962.81
2019-01-23T07:09:33.411Z,962.80
2019-01-23T07:10:33.366Z,962.75
2019-01-23T07:11:33.324Z,962.78
2019-01-23T07:12:33.282Z,962.82
2019-01-23T07:13:33.238Z,962.84
2019-01-23T07:14:33.188Z,962.86
2019-01-23T07:15:33.142Z,962.83
2019-01-23T07:16:33.124Z,962.88
2019-01-23T07:17:33.067Z,962.91
2019-01-23T07:18:33.011Z,962.87
2019-01-23T07:19:32.981Z,962.88
2019-01-23T07:20:32.919Z,962.88
2019-01-23T07:21:32.870Z,962.87
2019-01-23T07:22:32.824Z,962.84
2019-01-23T07:23:32.813Z,962.84
2019-01-23T07:24:32.737Z,962.83
2019-01-23T07:25:32.693Z,962.88
2019-01-23T07:26:32.648Z,962.86
2019-01-23T07:27:32.605Z,962.91
2019-01-23T07:28:32.554Z,962.93
2019-01-23T07:29:32.507Z,962.94
2019-01-23T07:30:32.469Z,962.95
2019-01-23T07:31:32.422Z,962.94
2019-01-23T07:32:32.373Z,962.96
2019-01-23T07:33:32.324Z,962.97
2019-01-23T07:34:32.281Z,962.98
2019-01-23T07:35:32.237Z,963.00
2019-01-23T07:36:32.196Z,963.01
2019-01-23T07:37:32.152Z,963.00
2019-01-23T07:38:32.107Z,963.01
2019-01-23T07:39:32.072Z,963.01
2019-01-23T07:40:32.012Z,963.03
2019-01-23T07:41:31.963Z,963.01
2019-01-23T07:42:31.923Z,963.02
2019-01-23T07:43:31.875Z,963.03
2019-01-23T07:44:31.835Z,963.07
2019-01-23T07:45:31.787Z,963.02
2019-01-23T07:46:31.735Z,963.05
2019-01-23T07:47:31.693Z,963.00
2019-01-23T07:48:31.650Z,963.00
2019-01-23T07:49:31.611Z,963.01
2019-01-23T07:50:31.561Z,962.99
2019-01-23T07:51:31.514Z,962.99
2019-01-23T07:52:31.469Z,963.00
2019-01-23T07:53:31.419Z,963.01
2019-01-23T07:54:31.377Z,962.95
2019-01-23T07:55:31.333Z,962.98
2019-01-23T07:56:31.291Z,962.95
2019-01-23T07:57:31.244Z,962.98
2019-01-23T07:58:31.202Z,963.00
2019-01-23T07:59:31.151Z,962.96
2019-01-23T08:00:31.486Z,962.99
2019-01-23T08:01:31.059Z,962.99
2019-01-23T08:02:31.023Z,962.97
2019-01-23T08:03:30.982Z,963.00
2019-01-23T08:04:30.928Z,963.00
2019-01-23T08:05:30.879Z,963.06
2019-01-23T08:06:30.832Z,962.98
2019-01-23T08:07:30.789Z,963.02
2019-01-23T08:08:30.751Z,962.99
2019-01-23T08:09:30.703Z,963.00
2019-01-23T08:10:30.660Z,963.03
2019-01-23T08:11:30.611Z,963.03
2019-01-23T08:12:30.564Z,963.06
2019-01-23T08:13:30.514Z,963.07
2019-01-23T08:14:30.471Z,963.06
2019-01-23T08:15:30.427Z,963.05
2019-01-23T08:16:30.384Z,963.07
2019-01-23T08:17:32.964Z,963.06
2019-01-23T08:18:30.290Z,963.06
2019-01-23T08:19:30.246Z,963.01
2019-01-23T08:20:30.207Z,963.03
2019-01-23T08:21:30.161Z,963.03
2019-01-23T08:22:30.115Z,963.01
2019-01-23T08:23:30.071Z,963.04
2019-01-23T08:24:30.022Z,963.01
2019-01-23T08:25:29.974Z,963.02
2019-01-23T08:26:29.928Z,963.01
2019-01-23T08:27:29.890Z,963.04
2019-01-23T08:28:29.845Z,963.08
2019-01-23T08:29:29.799Z,963.06
2019-01-23T08:30:29.755Z,963.08
2019-01-23T08:31:29.707Z,963.11
2019-01-23T08:32:29.661Z,963.13
2019-01-23T08:33:29.612Z,963.12
2019-01-23T08:34:29.575Z,963.11
2019-01-23T08:35:29.527Z,963.14
2019-01-23T08:36:29.495Z,963.13
2019-01-23T08:37:29.435Z,963.13
2019-01-23T08:38:29.388Z,963.10
2019-01-23T08:39:29.345Z,963.12
2019-01-23T08:40:29.303Z,963.15
2019-01-23T08:41:29.260Z,963.10
2019-01-23T08:42:29.215Z,963.11
2019-01-23T08:43:29.214Z,963.10
2019-01-23T08:44:29.121Z,963.13
2019-01-23T08:45:29.078Z,963.13
2019-01-23T08:46:29.033Z,963.11
2019-01-23T08:47:28.986Z,963.11
2019-01-23T08:48:28.946Z,963.11
2019-01-23T08:49:28.901Z,963.09
2019-01-23T08:50:28.852Z,963.10
2019-01-23T08:51:28.811Z,963.11
2019-01-23T08:52:28.762Z,963.08
2019-01-23T08:53:28.717Z,963.05
2019-01-23T08:54:28.694Z,963.05
2019-01-23T08:55:28.626Z,963.07
2019-01-23T08:56:28.583Z,963.10
2019-01-23T08:57:28.531Z,963.09
2019-01-23T08:58:28.494Z,963.05
2019-01-23T08:59:28.443Z,963.09
2019-01-23T09:00:28.404Z,963.11
2019-01-23T09:01:28.357Z,963.13
2019-01-23T09:02:28.312Z,963.13
2019-01-23T09:03:28.265Z,963.19
2019-01-23T09:04:28.219Z,963.17
2019-01-23T09:05:28.172Z,963.20
2019-01-23T09:06:28.143Z,963.21
2019-01-23T09:07:28.086Z,963.20
2019-01-23T09:08:28.040Z,963.17
2019-01-23T09:09:27.991Z,963.19
2019-01-23T09:10:27.952Z,963.23
2019-01-23T09:11:27.904Z,963.22
2019-01-23T09:12:27.864Z,963.23
2019-01-23T09:13:27.817Z,963.21
2019-01-23T09:14:27.773Z,963.29
2019-01-23T09:15:27.726Z,963.25
2019-01-23T09:16:27.679Z,963.28
2019-01-23T09:17:27.635Z,963.32
2019-01-23T09:18:27.588Z,963.31
2019-01-23T09:19:27.544Z,963.31
2019-01-23T09:20:27.503Z,963.26
2019-01-23T09:21:27.459Z,963.28
2019-01-23T09:22:27.407Z,963.29
2019-01-23T09:23:27.364Z,963.29
2019-01-23T09:24:27.322Z,963.32
2019-01-23T09:25:27.280Z,963.30
2019-01-23T09:26:27.234Z,963.35
2019-01-23T09:27:27.187Z,963.35
2019-01-23T09:28:27.144Z,963.35
2019-01-23T09:29:27.098Z,963.31
2019-01-23T09:30:27.050Z,963.31
2019-01-23T09:31:27.022Z,963.29
2019-01-23T09:32:26.989Z,963.30
2019-01-23T09:33:26.918Z,963.29
2019-01-23T09:34:26.874Z,963.31
2019-01-23T09:35:26.843Z,963.28
2019-01-23T09:36:26.783Z,963.32
2019-01-23T09:37:26.738Z,963.31
2019-01-23T09:38:26.693Z,963.32
2019-01-23T09:39:26.651Z,963.32
2019-01-23T09:40:26.603Z,963.31
2019-01-23T09:41:26.565Z,963.35
2019-01-23T09:42:26.512Z,963.40
2019-01-23T09:43:26.469Z,963.44
2019-01-23T09:44:26.427Z,963.38
2019-01-23T09:45:26.382Z,963.40
2019-01-23T09:46:26.335Z,963.41
2019-01-23T09:47:26.294Z,963.43
2019-01-23T09:48:26.244Z,963.44
2019-01-23T09:49:26.198Z,963.45
2019-01-23T09:50:26.154Z,963.43
2019-01-23T09:51:26.106Z,963.48
2019-01-23T09:52:26.068Z,963.44
2019-01-23T09:53:26.024Z,963.47
2019-01-23T09:54:25.976Z,963.51
2019-01-23T09:55:25.942Z,963.52
2019-01-23T09:56:25.887Z,963.52
2019-01-23T09:57:25.841Z,963.55
2019-01-23T09:58:25.797Z,963.54
2019-01-23T09:59:25.756Z,963.52
2019-01-23T10:00:25.704Z,963.54
2019-01-23T10:01:25.660Z,963.57
2019-01-23T10:02:25.616Z,963.57
2019-01-23T10:03:25.568Z,963.59
2019-01-23T10:04:25.530Z,963.63
2019-01-23T10:05:25.483Z,963.59
2019-01-23T10:20:02.695Z,963.69
2019-01-23T10:21:02.617Z,963.69
2019-01-23T10:22:02.577Z,963.68
2019-01-23T10:23:02.516Z,963.71
2019-01-23T10:24:02.470Z,963.74
2019-01-23T10:25:02.426Z,963.70
2019-01-23T10:26:02.380Z,963.70
2019-01-23T10:27:02.335Z,963.70
2019-01-23T10:28:02.288Z,963.70
2019-01-23T10:29:02.238Z,963.72
2019-01-23T10:30:02.250Z,963.74
2019-01-23T10:31:06.546Z,963.75
2019-01-23T10:32:02.101Z,963.76
2019-01-23T10:33:02.059Z,963.79
2019-01-23T10:34:02.013Z,963.78
2019-01-23T10:35:01.969Z,963.78
2019-01-23T10:36:01.921Z,963.79
2019-01-23T10:37:01.872Z,963.79
2019-01-23T10:38:01.823Z,963.79
2019-01-23T10:39:01.786Z,963.79
2019-01-23T10:40:01.737Z,963.81
2019-01-23T10:41:01.690Z,963.79
2019-01-23T10:42:01.643Z,963.82
2019-01-23T10:43:01.598Z,963.82
2019-01-23T10:44:01.554Z,963.81
2019-01-23T10:45:01.514Z,963.82
2019-01-23T10:46:01.468Z,963.82
2019-01-23T10:47:01.424Z,963.82
2019-01-23T10:48:01.379Z,963.82
2019-01-23T10:49:01.332Z,963.88
2019-01-23T10:50:01.283Z,963.81
2019-01-23T10:51:01.240Z,963.82
2019-01-23T10:52:01.201Z,963.77
2019-01-23T10:53:01.152Z,963.79
2019-01-23T10:54:01.113Z,963.81
2019-01-23T10:55:01.063Z,963.77
2019-01-23T10:56:01.021Z,963.78
2019-01-23T10:57:00.973Z,963.81
2019-01-23T10:58:00.931Z,963.77
2019-01-23T10:59:00.889Z,963.79
2019-01-23T11:00:00.843Z,963.79
2019-01-23T11:01:00.792Z,963.81
2019-01-23T11:02:00.745Z,963.83
2019-01-23T11:03:00.707Z,963.81
2019-01-23T11:04:00.658Z,963.82
2019-01-23T11:05:00.619Z,963.83
2019-01-23T11:06:00.576Z,963.83
2019-01-23T11:07:00.531Z,963.83
2019-01-23T11:08:00.485Z,963.81
2019-01-23T11:09:00.436Z,963.85
2019-01-23T11:10:00.393Z,963.82
2019-01-23T11:11:00.350Z,963.83
2019-01-23T11:12:00.306Z,963.79
2019-01-23T11:13:00.259Z,963.80
2019-01-23T11:14:00.213Z,963.80
2019-01-23T11:15:00.183Z,963.81
2019-01-23T11:16:00.126Z,963.86
2019-01-23T11:17:00.083Z,963.84
2019-01-23T11:18:00.179Z,963.83
2019-01-23T11:18:59.999Z,963.87
2019-01-23T11:19:59.949Z,963.82
2019-01-23T11:20:59.899Z,963.84
2019-01-23T11:21:59.857Z,963.87
2019-01-23T11:22:59.822Z,963.86
2019-01-23T11:23:59.765Z,963.82
2019-01-23T11:24:59.727Z,963.80
2019-01-23T11:25:59.683Z,963.84
2019-01-23T11:26:59.636Z,963.80
2019-01-23T11:27:59.589Z,963.86
2019-01-23T11:28:59.549Z,963.88
2019-01-23T11:29:59.504Z,963.87
2019-01-23T11:30:59.459Z,963.88
2019-01-23T11:31:59.417Z,963.87
2019-01-23T11:32:59.369Z,963.90
2019-01-23T11:33:59.327Z,963.88
2019-01-23T11:34:59.280Z,963.92
2019-01-23T11:35:59.232Z,963.93
2019-01-23T11:36:59.194Z,963.93
2019-01-23T11:37:59.148Z,963.93
2019-01-23T11:38:59.107Z,963.92
2019-01-23T11:39:59.060Z,963.93
2019-01-23T11:40:59.011Z,963.95
2019-01-23T11:41:58.969Z,963.95
2019-01-23T11:42:58.929Z,963.92
2019-01-23T11:43:58.884Z,963.94
2019-01-23T11:44:58.833Z,963.93
2019-01-23T11:45:58.792Z,963.93
2019-01-23T11:46:58.747Z,963.93
2019-01-23T11:47:58.719Z,963.94
2019-01-23T11:48:58.663Z,963.91
2019-01-23T11:49:58.621Z,963.93
2019-01-23T11:50:58.573Z,963.99
2019-01-23T11:51:58.531Z,963.98
2019-01-23T11:52:58.479Z,964.01
2019-01-23T11:53:58.437Z,964.09
2019-01-23T11:54:58.394Z,964.04
2019-01-23T11:55:58.346Z,964.06
2019-01-23T11:56:58.312Z,964.07
2019-01-23T11:57:58.262Z,964.09
2019-01-23T11:58:58.216Z,964.06
2019-01-23T11:59:58.169Z,964.06
2019-01-23T12:00:58.132Z,964.08
2019-01-23T12:01:58.085Z,964.13
2019-01-23T12:02:58.042Z,964.09
2019-01-23T12:03:57.998Z,964.13
2019-01-23T12:04:57.948Z,964.12
2019-01-23T12:05:57.906Z,964.11
2019-01-23T12:06:57.867Z,964.09
2019-01-23T12:07:57.815Z,964.10
2019-01-23T12:08:57.782Z,964.12
2019-01-23T12:09:57.732Z,964.09
2019-01-23T12:10:58.053Z,964.09
2019-01-23T12:11:57.663Z,964.10
2019-01-23T12:12:57.600Z,964.11
2019-01-23T12:13:57.592Z,964.11
2019-01-23T12:14:57.511Z,964.10
2019-01-23T12:15:57.469Z,964.13
2019-01-23T12:16:57.892Z,964.15
2019-01-23T12:17:57.377Z,964.12
2019-01-23T12:18:57.332Z,964.13
2019-01-23T12:19:57.285Z,964.15
2019-01-23T12:20:57.249Z,964.17
2019-01-23T12:21:57.202Z,964.12
2019-01-23T12:22:57.171Z,964.12
2019-01-23T12:23:58.421Z,964.15
2019-01-23T12:24:57.066Z,964.16
2019-01-23T12:25:57.026Z,964.17
2019-01-23T12:26:56.981Z,964.14
2019-01-23T12:27:56.934Z,964.13
2019-01-23T12:28:56.896Z,964.16
2019-01-23T12:29:56.850Z,964.12
2019-01-23T12:30:56.805Z,964.14
2019-01-23T12:31:56.764Z,964.15
2019-01-23T12:32:56.725Z,964.14
2019-01-23T12:33:56.675Z,964.12
2019-01-23T12:34:56.631Z,964.12
2019-01-23T12:35:56.588Z,964.16
2019-01-23T12:36:56.538Z,964.17
2019-01-23T12:37:56.495Z,964.22
2019-01-23T12:38:56.455Z,964.18
2019-01-23T12:39:56.406Z,964.20
2019-01-23T12:40:56.375Z,964.16
2019-01-23T12:41:56.323Z,964.20
2019-01-23T12:42:56.279Z,964.20
2019-01-23T12:43:56.237Z,964.19
2019-01-23T12:44:56.187Z,964.14
2019-01-23T12:45:56.145Z,964.15
2019-01-23T12:46:56.111Z,964.22
2019-01-23T12:47:56.068Z,964.16
2019-01-23T12:48:56.011Z,964.15
2019-01-23T12:49:55.968Z,964.19
2019-01-23T12:50:55.925Z,964.24
2019-01-23T12:51:55.886Z,964.21
2019-01-23T12:52:55.845Z,964.21
2019-01-23T12:53:55.795Z,964.22
2019-01-23T12:54:55.750Z,964.21
2019-01-23T12:55:55.710Z,964.22